sensor_id;sensor_type;location;lat;lon;timestamp;P1;durP1;ratioP1;P2;durP2;ratioP2
36379;SDS011;22411;53.016;18.632;2023-01-29T00:01:49;23.27;;;13.20;;
36379;SDS011;22411;53.016;18.632;2023-01-29T00:04:16;18.57;;;11.53;;
36379;SDS011;22411;53.016;18.632;2023-01-29T00:06:42;20.90;;;12.33;;
36379;SDS011;22411;53.016;18.632;2023-01-29T00:09:09;20.20;;;12.17;;
36379;SDS011;22411;53.016;18.632;2023-01-29T00:11:35;23.37;;;11.57;;
36379;SDS011;22411;53.016;18.632;2023-01-29T00:14:01;18.60;;;12.13;;
36379;SDS011;22411;53.016;18.632;2023-01-29T00:16:28;19.40;;;11.97;;
36379;SDS011;22411;53.016;18.632;2023-01-29T00:18:54;20.50;;;11.93;;
36379;SDS011;22411;53.016;18.632;2023-01-29T00:21:21;18.67;;;11.70;;
36379;SDS011;22411;53.016;18.632;2023-01-29T00:23:48;17.73;;;10.87;;
36379;SDS011;22411;53.016;18.632;2023-01-29T00:26:15;20.80;;;11.20;;
36379;SDS011;22411;53.016;18.632;2023-01-29T00:28:42;21.57;;;10.70;;
36379;SDS011;22411;53.016;18.632;2023-01-29T00:31:13;20.50;;;11.27;;
36379;SDS011;22411;53.016;18.632;2023-01-29T00:33:41;20.33;;;10.90;;
36379;SDS011;22411;53.016;18.632;2023-01-29T00:36:09;22.37;;;11.93;;
36379;SDS011;22411;53.016;18.632;2023-01-29T00:38:38;16.85;;;9.73;;
36379;SDS011;22411;53.016;18.632;2023-01-29T00:41:09;16.47;;;9.43;;
36379;SDS011;22411;53.016;18.632;2023-01-29T00:43:53;16.57;;;9.10;;
36379;SDS011;22411;53.016;18.632;2023-01-29T00:46:38;17.87;;;10.27;;
36379;SDS011;22411;53.016;18.632;2023-01-29T00:49:05;19.77;;;10.80;;
36379;SDS011;22411;53.016;18.632;2023-01-29T00:51:33;18.07;;;9.43;;
36379;SDS011;22411;53.016;18.632;2023-01-29T00:53:59;18.40;;;10.60;;
36379;SDS011;22411;53.016;18.632;2023-01-29T00:56:26;16.17;;;8.80;;
36379;SDS011;22411;53.016;18.632;2023-01-29T00:58:54;16.47;;;9.13;;
36379;SDS011;22411;53.016;18.632;2023-01-29T01:01:21;14.97;;;9.57;;
36379;SDS011;22411;53.016;18.632;2023-01-29T01:04:08;18.70;;;9.90;;
36379;SDS011;22411;53.016;18.632;2023-01-29T01:06:36;18.17;;;9.57;;
36379;SDS011;22411;53.016;18.632;2023-01-29T01:09:03;18.87;;;9.40;;
36379;SDS011;22411;53.016;18.632;2023-01-29T01:11:48;21.43;;;9.27;;
36379;SDS011;22411;53.016;18.632;2023-01-29T01:14:14;15.60;;;8.53;;
36379;SDS011;22411;53.016;18.632;2023-01-29T01:16:40;14.90;;;9.27;;
36379;SDS011;22411;53.016;18.632;2023-01-29T01:19:06;15.07;;;8.63;;
36379;SDS011;22411;53.016;18.632;2023-01-29T01:21:32;18.50;;;8.80;;
36379;SDS011;22411;53.016;18.632;2023-01-29T01:23:58;16.07;;;9.20;;
36379;SDS011;22411;53.016;18.632;2023-01-29T01:26:24;15.70;;;9.37;;
36379;SDS011;22411;53.016;18.632;2023-01-29T01:28:50;14.10;;;7.93;;
36379;SDS011;22411;53.016;18.632;2023-01-29T01:31:16;18.93;;;10.00;;
36379;SDS011;22411;53.016;18.632;2023-01-29T01:33:43;14.87;;;8.33;;
36379;SDS011;22411;53.016;18.632;2023-01-29T01:36:09;15.33;;;8.40;;
36379;SDS011;22411;53.016;18.632;2023-01-29T01:38:38;11.50;;;7.57;;
36379;SDS011;22411;53.016;18.632;2023-01-29T01:41:10;14.40;;;7.93;;
36379;SDS011;22411;53.016;18.632;2023-01-29T01:43:56;16.30;;;8.90;;
36379;SDS011;22411;53.016;18.632;2023-01-29T01:46:27;14.60;;;8.27;;
36379;SDS011;22411;53.016;18.632;2023-01-29T01:48:58;15.33;;;7.80;;
36379;SDS011;22411;53.016;18.632;2023-01-29T01:51:30;16.07;;;9.53;;
36379;SDS011;22411;53.016;18.632;2023-01-29T01:54:02;13.83;;;7.17;;
36379;SDS011;22411;53.016;18.632;2023-01-29T01:56:33;13.57;;;8.03;;
36379;SDS011;22411;53.016;18.632;2023-01-29T01:59:11;9.30;;;6.53;;
36379;SDS011;22411;53.016;18.632;2023-01-29T02:01:42;14.80;;;6.70;;
36379;SDS011;22411;53.016;18.632;2023-01-29T02:04:13;9.75;;;5.68;;
36379;SDS011;22411;53.016;18.632;2023-01-29T02:07:07;12.90;;;6.93;;
36379;SDS011;22411;53.016;18.632;2023-01-29T02:10:02;12.43;;;6.30;;
36379;SDS011;22411;53.016;18.632;2023-01-29T02:12:35;12.17;;;5.87;;
36379;SDS011;22411;53.016;18.632;2023-01-29T02:15:02;14.20;;;6.33;;
36379;SDS011;22411;53.016;18.632;2023-01-29T02:17:30;13.17;;;7.10;;
36379;SDS011;22411;53.016;18.632;2023-01-29T02:25:25;12.33;;;7.33;;
36379;SDS011;22411;53.016;18.632;2023-01-29T02:28:24;10.30;;;6.27;;
36379;SDS011;22411;53.016;18.632;2023-01-29T02:31:06;11.53;;;5.90;;
36379;SDS011;22411;53.016;18.632;2023-01-29T02:39:13;12.23;;;5.23;;
36379;SDS011;22411;53.016;18.632;2023-01-29T02:42:11;10.50;;;5.53;;
36379;SDS011;22411;53.016;18.632;2023-01-29T02:44:46;13.53;;;5.23;;
36379;SDS011;22411;53.016;18.632;2023-01-29T02:47:21;12.90;;;6.00;;
36379;SDS011;22411;53.016;18.632;2023-01-29T02:52:44;10.70;;;6.17;;
36379;SDS011;22411;53.016;18.632;2023-01-29T02:55:34;9.90;;;5.90;;
36379;SDS011;22411;53.016;18.632;2023-01-29T02:58:12;11.07;;;7.00;;
36379;SDS011;22411;53.016;18.632;2023-01-29T03:00:44;11.83;;;5.50;;
36379;SDS011;22411;53.016;18.632;2023-01-29T03:08:17;11.53;;;6.27;;
36379;SDS011;22411;53.016;18.632;2023-01-29T03:11:03;7.00;;;4.87;;
36379;SDS011;22411;53.016;18.632;2023-01-29T03:13:42;8.17;;;4.77;;
36379;SDS011;22411;53.016;18.632;2023-01-29T03:16:24;9.20;;;5.18;;
36379;SDS011;22411;53.016;18.632;2023-01-29T03:19:09;11.73;;;6.33;;
36379;SDS011;22411;53.016;18.632;2023-01-29T03:21:43;11.25;;;5.82;;
36379;SDS011;22411;53.016;18.632;2023-01-29T03:27:24;9.97;;;5.07;;
36379;SDS011;22411;53.016;18.632;2023-01-29T03:30:12;7.00;;;4.43;;
36379;SDS011;22411;53.016;18.632;2023-01-29T03:33:03;9.33;;;4.23;;
36379;SDS011;22411;53.016;18.632;2023-01-29T03:35:33;10.35;;;4.63;;
36379;SDS011;22411;53.016;18.632;2023-01-29T03:38:04;7.67;;;3.97;;
36379;SDS011;22411;53.016;18.632;2023-01-29T03:40:42;11.03;;;4.70;;
36379;SDS011;22411;53.016;18.632;2023-01-29T03:43:19;6.70;;;3.40;;
36379;SDS011;22411;53.016;18.632;2023-01-29T03:46:09;11.80;;;4.70;;
36379;SDS011;22411;53.016;18.632;2023-01-29T03:49:10;9.93;;;5.47;;
36379;SDS011;22411;53.016;18.632;2023-01-29T03:54:24;8.93;;;4.43;;
36379;SDS011;22411;53.016;18.632;2023-01-29T04:02:19;9.63;;;5.00;;
36379;SDS011;22411;53.016;18.632;2023-01-29T04:04:53;5.67;;;2.97;;
36379;SDS011;22411;53.016;18.632;2023-01-29T04:07:23;6.28;;;3.95;;
36379;SDS011;22411;53.016;18.632;2023-01-29T04:09:53;4.63;;;3.03;;
36379;SDS011;22411;53.016;18.632;2023-01-29T04:12:28;4.37;;;3.20;;
36379;SDS011;22411;53.016;18.632;2023-01-29T04:15:01;7.53;;;3.93;;
36379;SDS011;22411;53.016;18.632;2023-01-29T04:17:36;6.67;;;2.20;;
36379;SDS011;22411;53.016;18.632;2023-01-29T04:20:05;5.53;;;3.50;;
36379;SDS011;22411;53.016;18.632;2023-01-29T04:22:33;6.63;;;3.13;;
36379;SDS011;22411;53.016;18.632;2023-01-29T04:25:02;7.17;;;3.57;;
36379;SDS011;22411;53.016;18.632;2023-01-29T04:33:17;5.50;;;2.60;;
36379;SDS011;22411;53.016;18.632;2023-01-29T04:38:50;6.70;;;3.53;;
36379;SDS011;22411;53.016;18.632;2023-01-29T04:44:19;7.90;;;3.00;;
36379;SDS011;22411;53.016;18.632;2023-01-29T04:52:30;7.70;;;3.40;;
36379;SDS011;22411;53.016;18.632;2023-01-29T04:55:45;4.83;;;3.07;;
36379;SDS011;22411;53.016;18.632;2023-01-29T04:59:26;5.80;;;3.67;;
36379;SDS011;22411;53.016;18.632;2023-01-29T05:01:27;5.38;;;3.22;;
36379;SDS011;22411;53.016;18.632;2023-01-29T05:03:58;7.53;;;3.25;;
36379;SDS011;22411;53.016;18.632;2023-01-29T05:06:28;6.80;;;3.47;;
36379;SDS011;22411;53.016;18.632;2023-01-29T05:08:58;5.28;;;3.08;;
36379;SDS011;22411;53.016;18.632;2023-01-29T05:11:26;6.80;;;4.43;;
36379;SDS011;22411;53.016;18.632;2023-01-29T05:13:55;5.93;;;3.30;;
36379;SDS011;22411;53.016;18.632;2023-01-29T05:16:23;5.67;;;3.70;;
36379;SDS011;22411;53.016;18.632;2023-01-29T05:21:19;7.30;;;4.53;;
36379;SDS011;22411;53.016;18.632;2023-01-29T05:26:49;7.23;;;4.17;;
36379;SDS011;22411;53.016;18.632;2023-01-29T05:29:36;6.23;;;3.50;;
36379;SDS011;22411;53.016;18.632;2023-01-29T05:32:09;7.83;;;3.20;;
36379;SDS011;22411;53.016;18.632;2023-01-29T05:34:36;4.63;;;2.97;;
36379;SDS011;22411;53.016;18.632;2023-01-29T05:37:02;6.40;;;3.67;;
36379;SDS011;22411;53.016;18.632;2023-01-29T05:39:28;8.17;;;4.73;;
36379;SDS011;22411;53.016;18.632;2023-01-29T05:41:54;5.20;;;3.83;;
36379;SDS011;22411;53.016;18.632;2023-01-29T05:44:21;9.97;;;4.70;;
36379;SDS011;22411;53.016;18.632;2023-01-29T05:46:48;7.73;;;4.30;;
36379;SDS011;22411;53.016;18.632;2023-01-29T05:49:16;6.63;;;4.77;;
36379;SDS011;22411;53.016;18.632;2023-01-29T05:51:46;10.20;;;5.10;;
36379;SDS011;22411;53.016;18.632;2023-01-29T05:54:12;10.63;;;5.03;;
36379;SDS011;22411;53.016;18.632;2023-01-29T05:56:39;12.73;;;5.80;;
36379;SDS011;22411;53.016;18.632;2023-01-29T05:59:05;13.00;;;6.07;;
36379;SDS011;22411;53.016;18.632;2023-01-29T06:01:32;12.47;;;5.93;;
36379;SDS011;22411;53.016;18.632;2023-01-29T06:03:58;10.80;;;5.57;;
36379;SDS011;22411;53.016;18.632;2023-01-29T06:06:24;9.03;;;4.80;;
36379;SDS011;22411;53.016;18.632;2023-01-29T06:08:51;8.50;;;4.80;;
36379;SDS011;22411;53.016;18.632;2023-01-29T06:11:20;7.73;;;5.53;;
36379;SDS011;22411;53.016;18.632;2023-01-29T06:13:46;9.67;;;5.53;;
36379;SDS011;22411;53.016;18.632;2023-01-29T06:16:12;8.07;;;5.17;;
36379;SDS011;22411;53.016;18.632;2023-01-29T06:18:39;10.80;;;5.83;;
36379;SDS011;22411;53.016;18.632;2023-01-29T06:21:06;11.13;;;6.00;;
36379;SDS011;22411;53.016;18.632;2023-01-29T06:23:35;10.50;;;5.57;;
36379;SDS011;22411;53.016;18.632;2023-01-29T06:26:07;14.70;;;7.57;;
36379;SDS011;22411;53.016;18.632;2023-01-29T06:28:36;15.83;;;8.27;;
36379;SDS011;22411;53.016;18.632;2023-01-29T06:31:03;15.37;;;8.10;;
36379;SDS011;22411;53.016;18.632;2023-01-29T06:33:30;14.80;;;6.43;;
36379;SDS011;22411;53.016;18.632;2023-01-29T06:36:00;13.03;;;7.57;;
36379;SDS011;22411;53.016;18.632;2023-01-29T06:38:28;11.97;;;7.03;;
36379;SDS011;22411;53.016;18.632;2023-01-29T06:40:55;11.10;;;7.87;;
36379;SDS011;22411;53.016;18.632;2023-01-29T06:43:22;12.73;;;7.53;;
36379;SDS011;22411;53.016;18.632;2023-01-29T06:45:49;15.07;;;7.40;;
36379;SDS011;22411;53.016;18.632;2023-01-29T06:48:18;11.60;;;7.70;;
36379;SDS011;22411;53.016;18.632;2023-01-29T06:50:45;15.50;;;9.33;;
36379;SDS011;22411;53.016;18.632;2023-01-29T06:53:11;16.10;;;10.17;;
36379;SDS011;22411;53.016;18.632;2023-01-29T06:55:38;16.20;;;10.67;;
36379;SDS011;22411;53.016;18.632;2023-01-29T06:58:05;15.40;;;9.77;;
36379;SDS011;22411;53.016;18.632;2023-01-29T07:00:33;17.37;;;8.57;;
36379;SDS011;22411;53.016;18.632;2023-01-29T07:03:01;13.40;;;9.07;;
36379;SDS011;22411;53.016;18.632;2023-01-29T07:05:28;17.20;;;10.83;;
36379;SDS011;22411;53.016;18.632;2023-01-29T07:07:54;20.87;;;12.57;;
36379;SDS011;22411;53.016;18.632;2023-01-29T07:10:20;14.47;;;9.00;;
36379;SDS011;22411;53.016;18.632;2023-01-29T07:12:46;15.33;;;10.37;;
36379;SDS011;22411;53.016;18.632;2023-01-29T07:15:13;18.50;;;11.67;;
36379;SDS011;22411;53.016;18.632;2023-01-29T07:17:39;17.97;;;12.03;;
36379;SDS011;22411;53.016;18.632;2023-01-29T07:20:06;17.00;;;10.83;;
36379;SDS011;22411;53.016;18.632;2023-01-29T07:22:36;15.27;;;9.85;;
36379;SDS011;22411;53.016;18.632;2023-01-29T07:25:02;17.53;;;10.60;;
36379;SDS011;22411;53.016;18.632;2023-01-29T07:27:29;13.40;;;10.03;;
36379;SDS011;22411;53.016;18.632;2023-01-29T07:29:55;13.73;;;9.53;;
36379;SDS011;22411;53.016;18.632;2023-01-29T07:32:22;15.03;;;10.27;;
36379;SDS011;22411;53.016;18.632;2023-01-29T07:34:48;17.97;;;9.50;;
36379;SDS011;22411;53.016;18.632;2023-01-29T07:37:16;13.97;;;9.57;;
36379;SDS011;22411;53.016;18.632;2023-01-29T07:39:43;17.87;;;10.00;;
36379;SDS011;22411;53.016;18.632;2023-01-29T07:42:11;15.80;;;10.37;;
36379;SDS011;22411;53.016;18.632;2023-01-29T07:44:37;14.77;;;9.67;;
36379;SDS011;22411;53.016;18.632;2023-01-29T07:47:05;13.90;;;9.30;;
36379;SDS011;22411;53.016;18.632;2023-01-29T07:49:31;15.80;;;11.87;;
36379;SDS011;22411;53.016;18.632;2023-01-29T07:51:59;12.63;;;9.00;;
36379;SDS011;22411;53.016;18.632;2023-01-29T07:54:25;15.90;;;10.93;;
36379;SDS011;22411;53.016;18.632;2023-01-29T07:56:52;45.00;;;27.60;;
36379;SDS011;22411;53.016;18.632;2023-01-29T07:59:18;42.33;;;24.23;;
36379;SDS011;22411;53.016;18.632;2023-01-29T08:01:47;23.97;;;16.70;;
36379;SDS011;22411;53.016;18.632;2023-01-29T08:04:13;73.03;;;50.83;;
36379;SDS011;22411;53.016;18.632;2023-01-29T08:06:41;16.60;;;10.87;;
36379;SDS011;22411;53.016;18.632;2023-01-29T08:09:07;26.77;;;20.20;;
36379;SDS011;22411;53.016;18.632;2023-01-29T08:11:33;27.33;;;17.67;;
36379;SDS011;22411;53.016;18.632;2023-01-29T08:13:59;40.00;;;32.40;;
36379;SDS011;22411;53.016;18.632;2023-01-29T08:16:25;68.60;;;61.23;;
36379;SDS011;22411;53.016;18.632;2023-01-29T08:18:51;34.40;;;26.97;;
36379;SDS011;22411;53.016;18.632;2023-01-29T08:21:17;27.57;;;22.97;;
36379;SDS011;22411;53.016;18.632;2023-01-29T08:23:46;47.97;;;34.27;;
36379;SDS011;22411;53.016;18.632;2023-01-29T08:26:12;26.87;;;20.63;;
36379;SDS011;22411;53.016;18.632;2023-01-29T08:28:37;20.07;;;15.70;;
36379;SDS011;22411;53.016;18.632;2023-01-29T08:31:11;17.00;;;11.73;;
36379;SDS011;22411;53.016;18.632;2023-01-29T08:33:42;17.57;;;10.20;;
36379;SDS011;22411;53.016;18.632;2023-01-29T08:36:08;17.07;;;12.27;;
36379;SDS011;22411;53.016;18.632;2023-01-29T08:38:35;23.87;;;15.23;;
36379;SDS011;22411;53.016;18.632;2023-01-29T08:41:02;20.40;;;13.50;;
36379;SDS011;22411;53.016;18.632;2023-01-29T08:43:29;16.70;;;11.40;;
36379;SDS011;22411;53.016;18.632;2023-01-29T08:45:57;17.23;;;10.87;;
36379;SDS011;22411;53.016;18.632;2023-01-29T08:48:23;20.47;;;11.17;;
36379;SDS011;22411;53.016;18.632;2023-01-29T08:50:50;16.80;;;9.70;;
36379;SDS011;22411;53.016;18.632;2023-01-29T08:53:18;18.53;;;10.87;;
36379;SDS011;22411;53.016;18.632;2023-01-29T08:55:49;16.83;;;10.52;;
36379;SDS011;22411;53.016;18.632;2023-01-29T08:58:15;15.90;;;10.20;;
36379;SDS011;22411;53.016;18.632;2023-01-29T09:00:41;18.83;;;13.03;;
36379;SDS011;22411;53.016;18.632;2023-01-29T09:03:07;17.27;;;11.23;;
36379;SDS011;22411;53.016;18.632;2023-01-29T09:05:35;20.33;;;12.83;;
36379;SDS011;22411;53.016;18.632;2023-01-29T09:08:02;21.30;;;13.03;;
36379;SDS011;22411;53.016;18.632;2023-01-29T09:10:29;18.23;;;11.67;;
36379;SDS011;22411;53.016;18.632;2023-01-29T09:12:55;22.67;;;14.27;;
36379;SDS011;22411;53.016;18.632;2023-01-29T09:15:22;20.40;;;11.10;;
36379;SDS011;22411;53.016;18.632;2023-01-29T09:17:48;18.60;;;11.70;;
36379;SDS011;22411;53.016;18.632;2023-01-29T09:20:14;19.27;;;12.43;;
36379;SDS011;22411;53.016;18.632;2023-01-29T09:22:41;20.40;;;13.47;;
36379;SDS011;22411;53.016;18.632;2023-01-29T09:25:08;23.10;;;14.27;;
36379;SDS011;22411;53.016;18.632;2023-01-29T09:27:35;22.63;;;13.70;;
36379;SDS011;22411;53.016;18.632;2023-01-29T09:30:06;20.63;;;12.73;;
36379;SDS011;22411;53.016;18.632;2023-01-29T09:32:36;23.50;;;14.13;;
36379;SDS011;22411;53.016;18.632;2023-01-29T09:35:05;20.80;;;13.57;;
36379;SDS011;22411;53.016;18.632;2023-01-29T09:37:33;24.87;;;14.93;;
36379;SDS011;22411;53.016;18.632;2023-01-29T09:40:01;21.83;;;14.20;;
36379;SDS011;22411;53.016;18.632;2023-01-29T09:42:33;19.13;;;12.47;;
36379;SDS011;22411;53.016;18.632;2023-01-29T09:45:14;20.00;;;12.73;;
36379;SDS011;22411;53.016;18.632;2023-01-29T09:47:45;29.53;;;17.60;;
36379;SDS011;22411;53.016;18.632;2023-01-29T09:50:18;22.90;;;13.23;;
36379;SDS011;22411;53.016;18.632;2023-01-29T09:53:13;20.53;;;12.90;;
36379;SDS011;22411;53.016;18.632;2023-01-29T09:58:44;23.20;;;13.27;;
36379;SDS011;22411;53.016;18.632;2023-01-29T10:12:05;27.10;;;15.77;;
36379;SDS011;22411;53.016;18.632;2023-01-29T10:18:00;26.60;;;16.93;;
36379;SDS011;22411;53.016;18.632;2023-01-29T10:26:22;24.40;;;15.47;;
36379;SDS011;22411;53.016;18.632;2023-01-29T10:28:54;29.87;;;16.17;;
36379;SDS011;22411;53.016;18.632;2023-01-29T10:31:27;26.20;;;15.40;;
36379;SDS011;22411;53.016;18.632;2023-01-29T10:34:06;29.40;;;17.47;;
36379;SDS011;22411;53.016;18.632;2023-01-29T10:37:14;24.50;;;15.90;;
36379;SDS011;22411;53.016;18.632;2023-01-29T10:39:51;23.57;;;14.50;;
36379;SDS011;22411;53.016;18.632;2023-01-29T10:44:59;24.70;;;14.77;;
36379;SDS011;22411;53.016;18.632;2023-01-29T10:51:04;25.63;;;14.95;;
36379;SDS011;22411;53.016;18.632;2023-01-29T10:53:47;28.80;;;15.57;;
36379;SDS011;22411;53.016;18.632;2023-01-29T10:56:40;29.73;;;15.97;;
36379;SDS011;22411;53.016;18.632;2023-01-29T11:01:50;26.10;;;16.08;;
36379;SDS011;22411;53.016;18.632;2023-01-29T11:04:23;38.00;;;27.93;;
36379;SDS011;22411;53.016;18.632;2023-01-29T11:06:52;26.60;;;17.13;;
36379;SDS011;22411;53.016;18.632;2023-01-29T11:12:33;30.50;;;16.47;;
36379;SDS011;22411;53.016;18.632;2023-01-29T11:15:13;30.50;;;17.73;;
36379;SDS011;22411;53.016;18.632;2023-01-29T11:18:03;30.60;;;17.70;;
36379;SDS011;22411;53.016;18.632;2023-01-29T11:20:41;31.07;;;16.07;;
36379;SDS011;22411;53.016;18.632;2023-01-29T11:23:22;31.53;;;17.40;;
36379;SDS011;22411;53.016;18.632;2023-01-29T11:25:51;30.07;;;15.87;;
36379;SDS011;22411;53.016;18.632;2023-01-29T11:28:40;26.40;;;15.77;;
36379;SDS011;22411;53.016;18.632;2023-01-29T11:31:21;30.63;;;17.10;;
36379;SDS011;22411;53.016;18.632;2023-01-29T11:34:17;31.07;;;19.77;;
36379;SDS011;22411;53.016;18.632;2023-01-29T11:36:55;34.13;;;17.47;;
36379;SDS011;22411;53.016;18.632;2023-01-29T11:39:22;36.03;;;18.90;;
36379;SDS011;22411;53.016;18.632;2023-01-29T11:42:00;28.97;;;16.67;;
36379;SDS011;22411;53.016;18.632;2023-01-29T11:44:32;25.77;;;15.35;;
36379;SDS011;22411;53.016;18.632;2023-01-29T11:47:11;28.50;;;15.53;;
36379;SDS011;22411;53.016;18.632;2023-01-29T11:52:18;24.27;;;15.60;;
36379;SDS011;22411;53.016;18.632;2023-01-29T12:00:05;28.93;;;17.30;;
36379;SDS011;22411;53.016;18.632;2023-01-29T12:03:10;27.50;;;15.83;;
36379;SDS011;22411;53.016;18.632;2023-01-29T12:05:39;30.03;;;16.43;;
36379;SDS011;22411;53.016;18.632;2023-01-29T12:08:17;26.03;;;16.57;;
36379;SDS011;22411;53.016;18.632;2023-01-29T12:10:45;29.10;;;17.33;;
36379;SDS011;22411;53.016;18.632;2023-01-29T12:15:38;30.13;;;16.17;;
36379;SDS011;22411;53.016;18.632;2023-01-29T12:18:11;30.93;;;17.07;;
36379;SDS011;22411;53.016;18.632;2023-01-29T12:20:57;25.27;;;14.87;;
36379;SDS011;22411;53.016;18.632;2023-01-29T12:26:30;30.50;;;18.27;;
36379;SDS011;22411;53.016;18.632;2023-01-29T12:32:11;29.77;;;16.60;;
36379;SDS011;22411;53.016;18.632;2023-01-29T12:34:56;29.50;;;16.17;;
36379;SDS011;22411;53.016;18.632;2023-01-29T12:40:13;30.20;;;17.77;;
36379;SDS011;22411;53.016;18.632;2023-01-29T12:42:43;28.13;;;17.50;;
36379;SDS011;22411;53.016;18.632;2023-01-29T12:45:23;28.20;;;14.93;;
36379;SDS011;22411;53.016;18.632;2023-01-29T12:47:53;31.83;;;17.80;;
36379;SDS011;22411;53.016;18.632;2023-01-29T12:50:23;36.57;;;19.07;;
36379;SDS011;22411;53.016;18.632;2023-01-29T12:55:34;36.30;;;14.57;;
36379;SDS011;22411;53.016;18.632;2023-01-29T12:58:15;29.03;;;16.70;;
36379;SDS011;22411;53.016;18.632;2023-01-29T13:00:54;33.90;;;18.13;;
36379;SDS011;22411;53.016;18.632;2023-01-29T13:06:10;33.80;;;17.53;;
36379;SDS011;22411;53.016;18.632;2023-01-29T13:08:44;31.80;;;16.77;;
36379;SDS011;22411;53.016;18.632;2023-01-29T13:11:18;32.97;;;18.57;;
36379;SDS011;22411;53.016;18.632;2023-01-29T13:13:57;42.43;;;21.17;;
36379;SDS011;22411;53.016;18.632;2023-01-29T13:16:26;34.03;;;18.47;;
36379;SDS011;22411;53.016;18.632;2023-01-29T13:18:58;31.70;;;18.57;;
36379;SDS011;22411;53.016;18.632;2023-01-29T13:21:30;36.03;;;20.52;;
36379;SDS011;22411;53.016;18.632;2023-01-29T13:24:03;39.20;;;20.80;;
36379;SDS011;22411;53.016;18.632;2023-01-29T13:26:38;36.73;;;20.43;;
36379;SDS011;22411;53.016;18.632;2023-01-29T13:29:19;34.60;;;19.77;;
36379;SDS011;22411;53.016;18.632;2023-01-29T13:32:08;36.33;;;19.53;;
36379;SDS011;22411;53.016;18.632;2023-01-29T13:34:44;33.53;;;20.77;;
36379;SDS011;22411;53.016;18.632;2023-01-29T13:37:22;43.20;;;22.27;;
36379;SDS011;22411;53.016;18.632;2023-01-29T13:39:58;34.17;;;18.20;;
36379;SDS011;22411;53.016;18.632;2023-01-29T13:42:35;30.87;;;18.23;;
36379;SDS011;22411;53.016;18.632;2023-01-29T13:48:08;32.83;;;19.17;;
36379;SDS011;22411;53.016;18.632;2023-01-29T13:50:54;35.73;;;20.33;;
36379;SDS011;22411;53.016;18.632;2023-01-29T13:53:29;34.33;;;20.47;;
36379;SDS011;22411;53.016;18.632;2023-01-29T13:58:52;35.90;;;20.37;;
36379;SDS011;22411;53.016;18.632;2023-01-29T14:04:19;32.90;;;19.53;;
36379;SDS011;22411;53.016;18.632;2023-01-29T14:06:51;32.67;;;18.40;;
36379;SDS011;22411;53.016;18.632;2023-01-29T14:12:29;32.60;;;20.37;;
36379;SDS011;22411;53.016;18.632;2023-01-29T14:17:23;35.47;;;19.73;;
36379;SDS011;22411;53.016;18.632;2023-01-29T14:19:52;38.70;;;21.33;;
36379;SDS011;22411;53.016;18.632;2023-01-29T14:22:25;37.07;;;21.27;;
36379;SDS011;22411;53.016;18.632;2023-01-29T14:24:54;37.83;;;22.37;;
36379;SDS011;22411;53.016;18.632;2023-01-29T14:27:30;39.50;;;22.40;;
36379;SDS011;22411;53.016;18.632;2023-01-29T14:30:02;40.10;;;21.03;;
36379;SDS011;22411;53.016;18.632;2023-01-29T14:32:37;41.03;;;19.93;;
36379;SDS011;22411;53.016;18.632;2023-01-29T14:35:24;39.30;;;21.27;;
36379;SDS011;22411;53.016;18.632;2023-01-29T14:37:53;35.63;;;20.53;;
36379;SDS011;22411;53.016;18.632;2023-01-29T14:40:24;35.95;;;20.10;;
36379;SDS011;22411;53.016;18.632;2023-01-29T14:42:57;39.50;;;19.60;;
36379;SDS011;22411;53.016;18.632;2023-01-29T14:47:56;37.27;;;19.43;;
36379;SDS011;22411;53.016;18.632;2023-01-29T14:53:03;34.97;;;18.50;;
36379;SDS011;22411;53.016;18.632;2023-01-29T14:58:10;38.37;;;19.57;;
36379;SDS011;22411;53.016;18.632;2023-01-29T15:00:57;40.77;;;20.23;;
36379;SDS011;22411;53.016;18.632;2023-01-29T15:06:00;33.07;;;18.90;;
36379;SDS011;22411;53.016;18.632;2023-01-29T15:08:36;35.80;;;19.47;;
36379;SDS011;22411;53.016;18.632;2023-01-29T15:11:07;36.67;;;20.00;;
36379;SDS011;22411;53.016;18.632;2023-01-29T15:14:12;35.57;;;20.27;;
36379;SDS011;22411;53.016;18.632;2023-01-29T15:19:49;33.57;;;18.10;;
36379;SDS011;22411;53.016;18.632;2023-01-29T15:22:16;36.30;;;19.70;;
36379;SDS011;22411;53.016;18.632;2023-01-29T15:24:45;39.17;;;20.13;;
36379;SDS011;22411;53.016;18.632;2023-01-29T15:27:28;37.63;;;18.87;;
36379;SDS011;22411;53.016;18.632;2023-01-29T15:30:01;33.80;;;18.17;;
36379;SDS011;22411;53.016;18.632;2023-01-29T15:32:35;44.73;;;21.80;;
36379;SDS011;22411;53.016;18.632;2023-01-29T15:35:28;32.20;;;18.20;;
36379;SDS011;22411;53.016;18.632;2023-01-29T15:37:58;35.80;;;18.73;;
36379;SDS011;22411;53.016;18.632;2023-01-29T15:40:40;38.80;;;20.63;;
36379;SDS011;22411;53.016;18.632;2023-01-29T15:43:27;34.63;;;19.17;;
36379;SDS011;22411;53.016;18.632;2023-01-29T15:45:59;40.70;;;20.97;;
36379;SDS011;22411;53.016;18.632;2023-01-29T15:48:29;34.23;;;18.70;;
36379;SDS011;22411;53.016;18.632;2023-01-29T15:51:01;31.23;;;18.33;;
36379;SDS011;22411;53.016;18.632;2023-01-29T15:53:43;34.00;;;18.70;;
36379;SDS011;22411;53.016;18.632;2023-01-29T15:56:17;34.37;;;18.90;;
36379;SDS011;22411;53.016;18.632;2023-01-29T15:58:47;40.63;;;20.10;;
36379;SDS011;22411;53.016;18.632;2023-01-29T16:01:14;33.17;;;18.77;;
36379;SDS011;22411;53.016;18.632;2023-01-29T16:03:41;32.73;;;19.07;;
36379;SDS011;22411;53.016;18.632;2023-01-29T16:06:08;31.70;;;18.67;;
36379;SDS011;22411;53.016;18.632;2023-01-29T16:08:34;30.57;;;18.40;;
36379;SDS011;22411;53.016;18.632;2023-01-29T16:11:03;37.23;;;20.47;;
36379;SDS011;22411;53.016;18.632;2023-01-29T16:13:34;31.50;;;19.07;;
36379;SDS011;22411;53.016;18.632;2023-01-29T16:16:13;34.77;;;19.03;;
36379;SDS011;22411;53.016;18.632;2023-01-29T16:18:44;37.50;;;18.33;;
36379;SDS011;22411;53.016;18.632;2023-01-29T16:21:14;34.60;;;19.57;;
36379;SDS011;22411;53.016;18.632;2023-01-29T16:23:48;33.40;;;19.77;;
36379;SDS011;22411;53.016;18.632;2023-01-29T16:26:17;35.17;;;19.10;;
36379;SDS011;22411;53.016;18.632;2023-01-29T16:28:49;31.17;;;18.90;;
36379;SDS011;22411;53.016;18.632;2023-01-29T16:31:27;31.97;;;17.10;;
36379;SDS011;22411;53.016;18.632;2023-01-29T16:33:55;31.23;;;17.97;;
36379;SDS011;22411;53.016;18.632;2023-01-29T16:36:24;27.80;;;16.43;;
36379;SDS011;22411;53.016;18.632;2023-01-29T16:38:58;35.80;;;18.67;;
36379;SDS011;22411;53.016;18.632;2023-01-29T16:43:57;29.27;;;16.00;;
36379;SDS011;22411;53.016;18.632;2023-01-29T16:48:58;33.63;;;18.33;;
36379;SDS011;22411;53.016;18.632;2023-01-29T16:51:29;35.80;;;18.00;;
36379;SDS011;22411;53.016;18.632;2023-01-29T16:54:10;33.67;;;19.23;;
36379;SDS011;22411;53.016;18.632;2023-01-29T16:56:46;37.37;;;19.10;;
36379;SDS011;22411;53.016;18.632;2023-01-29T16:59:17;40.47;;;19.07;;
36379;SDS011;22411;53.016;18.632;2023-01-29T17:01:53;32.07;;;17.97;;
36379;SDS011;22411;53.016;18.632;2023-01-29T17:04:20;47.63;;;26.33;;
36379;SDS011;22411;53.016;18.632;2023-01-29T17:06:48;39.87;;;19.13;;
36379;SDS011;22411;53.016;18.632;2023-01-29T17:09:21;39.53;;;19.80;;
36379;SDS011;22411;53.016;18.632;2023-01-29T17:12:03;32.80;;;18.03;;